Time;durP1;ratioP1;P1;durP2;ratioP2;P2;SDS_P1;SDS_P2;PMS_P1;PMS_P2;Temp;Humidity;BMP_temperature;BMP_pressure;BME280_temperature;BME280_humidity;BME280_pressure;Samples;Min_cycle;Max_cycle;Signal;HPM_P1;HPM_P2
2022/11/05 00:09:54;;;;;;;5.53;4.60;;;19.20;55.80;;;;;;5115077;28;20443;-80
2022/11/05 00:17:55;;;;;;;5.73;4.40;;;19.20;55.90;;;;;;5112185;28;20438;-79
2022/11/05 00:20:23;;;;;;;6.07;4.60;;;19.20;55.70;;;;;;5119352;27;20447;-80
2022/11/05 00:25:37;;;;;;;5.93;4.40;;;19.10;56.00;;;;;;5118090;28;20467;-80
2022/11/05 00:28:05;;;;;;;5.20;4.17;;;19.10;56.00;;;;;;5118654;28;20493;-79
2022/11/05 00:30:34;;;;;;;5.30;4.37;;;19.10;56.10;;;;;;5119024;28;20439;-79
2022/11/05 00:33:02;;;;;;;6.30;4.80;;;19.10;56.00;;;;;;5116033;27;20464;-79
2022/11/05 00:35:30;;;;;;;6.63;4.93;;;19.10;55.90;;;;;;5117041;28;20469;-79
2022/11/05 00:37:58;;;;;;;5.00;4.20;;;19.00;55.80;;;;;;5113972;28;20444;-80
2022/11/05 00:40:26;;;;;;;5.33;4.67;;;19.00;56.10;;;;;;5100781;28;20444;-79
2022/11/05 00:45:42;;;;;;;6.00;4.10;;;19.00;56.10;;;;;;5111731;28;20466;-79
2022/11/05 00:50:55;;;;;;;4.50;4.10;;;19.00;56.20;;;;;;5105243;28;20444;-78
2022/11/05 00:53:23;;;;;;;5.03;3.67;;;19.00;56.10;;;;;;5118946;28;20471;-79
2022/11/05 00:55:51;;;;;;;4.73;3.90;;;18.90;55.80;;;;;;5118496;28;20447;-78
2022/11/05 00:58:20;;;;;;;5.10;4.03;;;18.90;56.10;;;;;;5117139;28;20444;-79
2022/11/05 01:00:50;;;;;;;3.97;3.57;;;18.90;56.10;;;;;;5118601;28;20436;-79
2022/11/05 01:03:20;;;;;;;4.17;3.73;;;19.00;56.30;;;;;;5120677;27;20478;-78
2022/11/05 01:05:49;;;;;;;5.10;3.87;;;18.90;56.20;;;;;;5119926;27;20470;-79
2022/11/05 01:08:18;;;;;;;5.87;3.40;;;18.90;56.20;;;;;;5117912;28;20440;-79
2022/11/05 01:10:47;;;;;;;4.40;3.90;;;18.90;56.00;;;;;;5117372;28;20451;-79
2022/11/05 01:13:16;;;;;;;4.40;3.83;;;18.80;56.20;;;;;;5118812;28;20464;-79
2022/11/05 01:15:45;;;;;;;5.23;3.73;;;18.80;56.10;;;;;;5108457;27;20448;-79
2022/11/05 01:18:15;;;;;;;4.57;3.70;;;18.80;56.00;;;;;;5112954;28;20441;-79
2022/11/05 01:20:42;;;;;;;4.83;4.10;;;18.80;56.20;;;;;;5119559;28;20439;-79
2022/11/05 01:23:10;;;;;;;4.03;3.63;;;18.80;56.00;;;;;;5119130;27;20468;-79
2022/11/05 01:25:40;;;;;;;6.40;3.77;;;18.70;56.20;;;;;;5110175;28;20481;-78
2022/11/05 01:28:08;;;;;;;4.30;3.70;;;18.80;56.00;;;;;;5119522;28;20811;-79
2022/11/05 01:30:37;;;;;;;4.63;3.87;;;18.70;56.20;;;;;;5136797;27;20454;-79
2022/11/05 01:33:05;;;;;;;5.33;3.77;;;18.70;55.90;;;;;;5138693;27;20466;-78
2022/11/05 01:35:35;;;;;;;5.97;3.70;;;18.70;56.10;;;;;;5131968;27;20453;-78
2022/11/05 01:38:03;;;;;;;3.93;3.53;;;18.70;56.00;;;;;;5111289;28;20432;-78
2022/11/05 01:40:30;;;;;;;5.03;3.80;;;18.60;56.00;;;;;;5119270;27;20456;-79
2022/11/05 01:42:58;;;;;;;6.10;3.73;;;18.60;56.10;;;;;;5114899;27;20468;-78
2022/11/05 01:45:27;;;;;;;5.77;3.80;;;18.60;56.10;;;;;;5117683;27;20447;-79
2022/11/05 01:48:01;;;;;;;4.17;3.40;;;18.60;56.00;;;;;;5117803;28;20448;-80
2022/11/05 01:50:41;;;;;;;5.40;3.30;;;18.60;56.20;;;;;;5118105;28;20849;-79
2022/11/05 01:53:15;;;;;;;5.47;3.80;;;18.60;55.90;;;;;;5118757;27;20472;-80
2022/11/05 01:55:44;;;;;;;4.40;3.70;;;18.60;55.80;;;;;;5103678;28;20432;-80
2022/11/05 01:58:14;;;;;;;6.07;3.80;;;18.50;56.10;;;;;;5119087;28;20440;-80
2022/11/05 02:00:42;;;;;;;3.90;3.60;;;18.50;55.90;;;;;;5122871;27;20956;-79
2022/11/05 02:03:10;;;;;;;3.77;3.33;;;18.50;56.30;;;;;;5132356;27;20455;-80
2022/11/05 02:05:39;;;;;;;3.57;3.27;;;18.50;56.20;;;;;;5124297;27;20462;-79
2022/11/05 02:08:09;;;;;;;4.90;3.53;;;18.40;56.10;;;;;;5101401;28;20448;-79
2022/11/05 02:10:36;;;;;;;6.80;3.70;;;18.50;56.20;;;;;;5108921;27;20452;-78
2022/11/05 02:13:04;;;;;;;5.90;3.37;;;18.40;56.30;;;;;;5127998;27;20471;-79
2022/11/05 02:15:36;;;;;;;5.93;3.93;;;18.50;56.20;;;;;;5118622;28;20448;-79
2022/11/05 02:18:12;;;;;;;4.70;3.50;;;18.50;55.90;;;;;;5120684;28;20416;-79
2022/11/05 02:20:44;;;;;;;5.50;3.77;;;18.40;56.00;;;;;;5117692;28;20443;-79
2022/11/05 02:23:47;;;;;;;3.47;3.20;;;18.50;56.20;;;;;;5116499;28;20546;-79
2022/11/05 02:26:41;;;;;;;6.00;3.33;;;18.40;56.00;;;;;;5118592;27;20463;-79
2022/11/05 02:29:45;;;;;;;4.03;3.57;;;18.40;56.00;;;;;;5094710;28;20935;-79
2022/11/05 02:32:17;;;;;;;4.90;3.40;;;18.40;56.00;;;;;;5102440;27;20497;-80
2022/11/05 02:34:50;;;;;;;3.87;3.00;;;18.30;55.90;;;;;;5126859;27;20471;-78
2022/11/05 02:37:23;;;;;;;3.57;3.20;;;18.30;56.30;;;;;;5129134;27;20440;-79
2022/11/05 02:39:54;;;;;;;3.67;3.33;;;18.30;56.20;;;;;;5120606;28;20443;-79
2022/11/05 02:42:25;;;;;;;3.67;3.10;;;18.30;56.10;;;;;;5104928;27;20444;-79
2022/11/05 02:44:56;;;;;;;3.80;3.43;;;18.30;56.20;;;;;;5104008;28;20451;-81
2022/11/05 02:47:28;;;;;;;3.53;3.07;;;18.20;55.70;;;;;;5116471;28;20467;-80
2022/11/05 02:50:00;;;;;;;3.03;2.73;;;18.20;56.10;;;;;;5122986;28;20452;-79
2022/11/05 02:52:31;;;;;;;2.60;2.47;;;18.20;56.20;;;;;;5121918;27;20459;-79
2022/11/05 02:55:03;;;;;;;3.10;2.80;;;18.20;56.10;;;;;;5123567;27;20432;-80
2022/11/05 02:57:31;;;;;;;3.90;2.80;;;18.20;55.90;;;;;;5117414;28;20436;-81
2022/11/05 03:00:00;;;;;;;4.27;2.93;;;18.10;55.80;;;;;;5118036;28;20439;-79
2022/11/05 03:02:30;;;;;;;3.47;3.17;;;18.10;56.20;;;;;;5117614;28;20440;-79
2022/11/05 03:04:59;;;;;;;3.30;2.90;;;18.10;56.00;;;;;;5117518;28;20534;-80
2022/11/05 03:07:36;;;;;;;4.37;3.20;;;18.00;56.40;;;;;;5108759;28;20468;-80
2022/11/05 03:10:25;;;;;;;4.20;3.03;;;18.10;56.20;;;;;;5116295;28;20455;-80
2022/11/05 03:13:01;;;;;;;4.23;3.10;;;18.10;56.00;;;;;;5114178;28;20503;-80
2022/11/05 03:15:38;;;;;;;3.10;2.67;;;18.10;56.10;;;;;;5113373;28;20447;-79
2022/11/05 03:18:11;;;;;;;4.77;3.43;;;18.00;56.20;;;;;;5106584;28;20811;-80
2022/11/05 03:20:40;;;;;;;5.60;3.33;;;18.10;56.10;;;;;;5114082;28;20432;-80
2022/11/05 03:23:11;;;;;;;3.03;2.83;;;18.00;56.00;;;;;;5115556;28;20452;-80
2022/11/05 03:25:43;;;;;;;3.50;3.20;;;18.00;55.90;;;;;;5114835;28;20432;-79
2022/11/05 03:28:11;;;;;;;3.63;3.27;;;18.00;56.00;;;;;;5112988;28;20468;-79
2022/11/05 03:30:39;;;;;;;3.50;3.20;;;18.00;56.00;;;;;;5113894;28;20469;-79
2022/11/05 03:33:10;;;;;;;3.60;2.73;;;18.00;56.00;;;;;;5114551;28;20468;-79
2022/11/05 03:35:41;;;;;;;3.00;2.50;;;18.00;56.10;;;;;;5112698;28;20444;-79
2022/11/05 03:38:11;;;;;;;2.93;2.70;;;18.00;56.00;;;;;;5105605;28;20436;-80
2022/11/05 03:40:39;;;;;;;6.50;2.83;;;18.00;55.70;;;;;;5111845;27;20504;-79
2022/11/05 03:43:08;;;;;;;2.93;2.73;;;17.90;56.00;;;;;;5113215;28;20492;-80
2022/11/05 03:45:38;;;;;;;4.30;3.20;;;17.90;55.90;;;;;;5105242;28;20488;-80
2022/11/05 03:48:06;;;;;;;3.93;2.60;;;17.90;56.20;;;;;;5113153;28;20467;-79
2022/11/05 03:50:38;;;;;;;3.47;2.53;;;17.80;55.90;;;;;;5113355;28;20550;-79
2022/11/05 03:53:11;;;;;;;3.47;2.80;;;17.80;56.00;;;;;;5112546;28;20512;-80
2022/11/05 03:55:42;;;;;;;4.03;2.90;;;17.80;56.20;;;;;;5113006;28;20538;-80
2022/11/05 03:58:10;;;;;;;4.60;2.97;;;17.80;55.80;;;;;;5097021;28;20437;-80
2022/11/05 04:00:38;;;;;;;4.40;2.60;;;17.80;56.10;;;;;;5112625;28;20440;-81
2022/11/05 04:03:06;;;;;;;4.17;2.60;;;17.80;55.90;;;;;;5111024;28;20501;-79
2022/11/05 04:05:35;;;;;;;7.33;2.30;;;17.80;56.10;;;;;;5113019;28;20454;-80
2022/11/05 04:13:35;;;;;;;3.40;2.80;;;17.80;56.00;;;;;;5112985;28;20475;-80
2022/11/05 04:18:48;;;;;;;3.20;2.80;;;17.70;55.70;;;;;;5113508;28;20440;-80
2022/11/05 04:24:09;;;;;;;3.30;2.27;;;17.60;55.80;;;;;;5107155;28;20470;-80
2022/11/05 04:26:37;;;;;;;5.40;2.43;;;17.60;56.00;;;;;;5117242;28;20444;-80
2022/11/05 04:31:51;;;;;;;2.93;2.50;;;17.60;55.70;;;;;;5119712;28;20456;-81
2022/11/05 04:34:20;;;;;;;2.93;2.40;;;17.60;55.60;;;;;;5124619;27;20480;-80
2022/11/05 04:36:50;;;;;;;6.40;2.40;;;17.60;55.70;;;;;;5116526;28;20452;-81
2022/11/05 04:39:18;;;;;;;3.10;2.53;;;17.50;55.80;;;;;;5113246;28;20464;-80
2022/11/05 04:41:47;;;;;;;3.30;2.60;;;17.50;55.80;;;;;;5107534;28;20452;-81
2022/11/05 04:44:15;;;;;;;4.13;2.53;;;17.60;55.70;;;;;;5113183;28;20480;-81
2022/11/05 04:46:43;;;;;;;3.87;2.33;;;17.40;55.60;;;;;;5106188;27;20962;-81
2022/11/05 04:49:11;;;;;;;5.90;2.60;;;17.50;55.80;;;;;;5118562;27;20500;-81
2022/11/05 04:51:39;;;;;;;2.60;2.40;;;17.40;55.70;;;;;;5124544;27;20455;-80
2022/11/05 04:54:08;;;;;;;3.37;2.37;;;17.40;55.80;;;;;;5116615;27;20468;-81
2022/11/05 04:56:36;;;;;;;2.23;2.03;;;17.50;55.70;;;;;;5115632;27;20458;-80
2022/11/05 04:59:04;;;;;;;3.43;2.40;;;17.50;55.50;;;;;;5110014;27;20440;-80
2022/11/05 05:01:32;;;;;;;2.50;2.30;;;17.50;55.30;;;;;;5116686;27;20462;-80
2022/11/05 05:04:01;;;;;;;2.90;2.70;;;17.40;55.50;;;;;;5111655;28;20461;-80
2022/11/05 05:06:29;;;;;;;2.67;2.30;;;17.30;55.30;;;;;;5116146;27;20477;-81
2022/11/05 05:08:57;;;;;;;3.47;2.20;;;17.40;55.40;;;;;;5111909;28;20507;-80
2022/11/05 05:11:26;;;;;;;2.33;2.20;;;17.40;55.60;;;;;;5112415;27;20482;-81
2022/11/05 05:13:54;;;;;;;3.97;2.10;;;17.40;55.40;;;;;;5113911;27;20476;-80
2022/11/05 05:16:24;;;;;;;3.53;2.10;;;17.30;55.30;;;;;;5132129;27;20427;-82
2022/11/05 05:18:52;;;;;;;3.60;2.47;;;17.30;55.40;;;;;;5127570;27;20429;-81
2022/11/05 05:21:39;;;;;;;3.90;2.00;;;17.30;55.40;;;;;;5133748;28;20433;-82
2022/11/05 05:24:08;;;;;;;2.67;2.47;;;17.30;55.20;;;;;;5140816;27;20458;-82
2022/11/05 05:26:38;;;;;;;2.47;2.27;;;17.20;55.70;;;;;;5140160;27;20443;-82
2022/11/05 05:29:06;;;;;;;3.80;2.50;;;17.30;55.20;;;;;;5139178;28;20462;-83
2022/11/05 05:31:34;;;;;;;2.50;2.30;;;17.20;55.60;;;;;;5140532;28;20470;-83
2022/11/05 05:34:02;;;;;;;2.93;2.07;;;17.20;55.40;;;;;;5144571;27;20448;-83
2022/11/05 05:36:30;;;;;;;2.60;2.10;;;17.20;55.60;;;;;;5133160;27;20432;-83
2022/11/05 05:38:58;;;;;;;2.40;2.20;;;17.20;55.50;;;;;;5132654;28;20424;-83
2022/11/05 05:41:26;;;;;;;2.93;2.30;;;17.20;55.60;;;;;;5140537;27;20529;-83
2022/11/05 05:43:55;;;;;;;3.30;2.20;;;17.20;55.60;;;;;;5132454;27;20447;-82
2022/11/05 05:46:23;;;;;;;2.37;2.17;;;17.20;55.20;;;;;;5133630;27;20443;-82
2022/11/05 05:48:51;;;;;;;4.23;2.20;;;17.20;55.60;;;;;;5125774;28;20485;-82
2022/11/05 05:51:20;;;;;;;2.20;2.10;;;17.20;55.50;;;;;;5121168;27;20452;-82
2022/11/05 05:53:48;;;;;;;3.13;2.17;;;17.20;55.50;;;;;;5124950;27;20478;-79
2022/11/05 05:56:19;;;;;;;2.80;2.20;;;17.20;55.30;;;;;;5130166;27;20466;-82
2022/11/05 05:58:47;;;;;;;3.13;2.30;;;17.10;54.90;;;;;;5125907;27;20424;-83
2022/11/05 06:01:17;;;;;;;2.77;2.13;;;17.10;55.30;;;;;;5122415;27;20452;-82
2022/11/05 06:03:47;;;;;;;6.03;2.10;;;17.10;55.50;;;;;;5115575;28;20554;-81
2022/11/05 06:06:19;;;;;;;2.43;2.17;;;17.10;55.00;;;;;;5114558;27;20452;-81
2022/11/05 06:08:48;;;;;;;4.77;2.60;;;17.10;55.50;;;;;;5118727;27;20464;-80
2022/11/05 06:11:16;;;;;;;2.23;1.80;;;17.10;55.40;;;;;;5119892;27;20464;-81
2022/11/05 06:13:43;;;;;;;2.97;2.40;;;17.10;55.40;;;;;;5102706;28;20472;-81
2022/11/05 06:16:11;;;;;;;4.13;2.10;;;17.10;55.30;;;;;;5117527;27;20448;-81
2022/11/05 06:18:40;;;;;;;3.77;2.20;;;17.10;55.20;;;;;;5123684;27;20443;-81
2022/11/05 06:21:09;;;;;;;4.27;2.30;;;17.00;55.10;;;;;;5124879;27;20545;-81
2022/11/05 06:23:39;;;;;;;2.20;2.00;;;17.00;55.40;;;;;;5121418;27;21063;-81
2022/11/05 06:26:07;;;;;;;3.33;2.30;;;17.00;55.20;;;;;;5125458;27;20444;-82
2022/11/05 06:28:36;;;;;;;3.40;2.53;;;17.00;55.40;;;;;;5114463;27;20472;-81
2022/11/05 06:31:04;;;;;;;2.60;1.73;;;17.00;55.40;;;;;;5112784;27;20452;-79
2022/11/05 06:33:33;;;;;;;2.60;2.33;;;17.00;55.40;;;;;;5118764;27;20479;-81
2022/11/05 06:36:02;;;;;;;4.20;2.20;;;17.00;55.20;;;;;;5119311;28;20454;-80
2022/11/05 06:38:32;;;;;;;3.60;2.20;;;17.00;55.40;;;;;;5120403;27;20488;-81
2022/11/05 06:41:00;;;;;;;2.83;2.27;;;17.00;55.20;;;;;;5125437;28;20485;-81
2022/11/05 06:43:36;;;;;;;3.50;2.33;;;17.00;55.10;;;;;;5122979;28;20550;-81
2022/11/05 06:46:05;;;;;;;2.20;2.00;;;17.00;55.20;;;;;;5124947;27;20463;-81
2022/11/05 06:48:33;;;;;;;2.43;2.23;;;16.90;55.30;;;;;;5115628;28;20463;-82
2022/11/05 06:51:03;;;;;;;2.13;1.90;;;17.00;55.20;;;;;;5123370;27;20459;-80
2022/11/05 06:53:31;;;;;;;2.90;1.90;;;17.00;55.50;;;;;;5125057;27;20512;-81
2022/11/05 06:56:02;;;;;;;2.40;1.83;;;17.00;55.10;;;;;;5126358;27;20454;-81
2022/11/05 06:58:31;;;;;;;1.90;1.70;;;17.00;55.20;;;;;;5125283;27;20453;-81
2022/11/05 07:01:02;;;;;;;1.90;1.80;;;17.00;55.30;;;;;;5120582;27;20509;-81
2022/11/05 07:03:30;;;;;;;2.10;1.90;;;17.00;55.40;;;;;;5117166;28;20558;-81
2022/11/05 07:05:59;;;;;;;4.00;2.50;;;17.00;55.30;;;;;;5118139;28;20505;-81
2022/11/05 07:08:30;;;;;;;2.67;2.43;;;17.00;55.30;;;;;;5113341;28;20476;-81
2022/11/05 07:10:58;;;;;;;3.43;1.60;;;17.00;55.20;;;;;;5114822;28;20444;-81
2022/11/05 07:13:26;;;;;;;2.40;2.23;;;17.00;55.30;;;;;;5119345;27;20463;-80
2022/11/05 07:15:55;;;;;;;2.33;2.13;;;17.10;55.20;;;;;;5116423;27;20451;-81
2022/11/05 07:18:23;;;;;;;3.23;2.20;;;17.10;55.30;;;;;;5117261;28;20452;-81
2022/11/05 07:20:51;;;;;;;3.07;2.20;;;17.10;55.20;;;;;;5116167;28;20946;-81
2022/11/05 07:23:19;;;;;;;2.80;2.00;;;17.00;55.30;;;;;;5121069;27;20504;-81
2022/11/05 07:25:49;;;;;;;2.47;2.00;;;17.00;55.60;;;;;;5113577;27;20453;-81
2022/11/05 07:28:17;;;;;;;1.90;1.80;;;17.10;55.40;;;;;;5120299;27;21033;-81
2022/11/05 07:30:47;;;;;;;1.87;1.77;;;17.10;55.40;;;;;;5115865;28;20459;-81
2022/11/05 07:33:15;;;;;;;2.60;2.20;;;17.10;55.60;;;;;;5125245;27;20459;-82
2022/11/05 07:35:43;;;;;;;1.93;1.83;;;17.10;55.60;;;;;;5122975;28;20451;-81
2022/11/05 07:38:11;;;;;;;3.73;2.10;;;17.10;55.60;;;;;;5123449;28;20452;-80
2022/11/05 07:40:39;;;;;;;3.03;2.10;;;17.20;55.70;;;;;;5122791;28;20451;-80
2022/11/05 07:43:09;;;;;;;3.63;2.00;;;17.20;55.80;;;;;;5132057;27;20475;-81
2022/11/05 07:45:37;;;;;;;2.87;1.90;;;17.20;55.70;;;;;;5123449;28;20503;-81
2022/11/05 07:48:06;;;;;;;2.20;2.00;;;17.20;55.60;;;;;;5121637;28;20444;-81
2022/11/05 07:50:35;;;;;;;2.57;2.17;;;17.20;55.70;;;;;;5120935;28;20464;-81
2022/11/05 07:53:04;;;;;;;2.67;2.10;;;17.20;55.70;;;;;;5120978;28;20448;-82
2022/11/05 07:55:32;;;;;;;2.20;2.00;;;17.20;55.80;;;;;;5132387;28;20443;-81
2022/11/05 07:58:00;;;;;;;2.40;2.20;;;17.20;55.80;;;;;;5138546;28;20443;-81
2022/11/05 08:00:31;;;;;;;2.30;2.10;;;17.30;55.90;;;;;;5127460;28;20436;-81
2022/11/05 08:03:00;;;;;;;2.33;2.00;;;17.30;56.00;;;;;;5140350;27;20463;-80
2022/11/05 08:05:36;;;;;;;2.30;2.10;;;17.30;55.90;;;;;;5144288;28;20444;-80
2022/11/05 08:08:04;;;;;;;2.37;1.93;;;17.40;56.00;;;;;;5123865;28;20444;-80
2022/11/05 08:10:32;;;;;;;2.27;2.03;;;17.40;55.80;;;;;;5126063;28;20470;-81
2022/11/05 08:13:01;;;;;;;1.90;1.80;;;17.40;55.70;;;;;;5120573;28;20498;-81
2022/11/05 08:15:30;;;;;;;2.57;2.37;;;17.50;55.90;;;;;;5125529;28;20535;-81
2022/11/05 08:17:58;;;;;;;2.40;2.10;;;17.50;55.80;;;;;;5128172;28;20452;-81
2022/11/05 08:20:27;;;;;;;1.73;1.63;;;17.60;56.00;;;;;;5128936;27;20448;-79
2022/11/05 08:22:55;;;;;;;2.97;2.47;;;17.60;56.10;;;;;;5124951;27;20471;-80
2022/11/05 08:25:24;;;;;;;3.43;2.50;;;17.70;56.20;;;;;;5137720;27;20451;-80
2022/11/05 08:27:55;;;;;;;1.90;1.63;;;17.80;56.50;;;;;;5123714;28;20449;-80
2022/11/05 08:30:23;;;;;;;2.67;2.40;;;17.90;56.70;;;;;;5121783;27;20472;-80
2022/11/05 08:32:56;;;;;;;2.43;2.23;;;18.00;56.90;;;;;;5114698;28;20448;-80
2022/11/05 08:35:24;;;;;;;2.13;1.97;;;18.20;57.20;;;;;;5128721;27;20493;-79
2022/11/05 08:37:55;;;;;;;2.93;2.13;;;18.40;57.40;;;;;;5136463;27;20447;-79
2022/11/05 08:40:23;;;;;;;2.47;2.27;;;18.70;57.80;;;;;;5126553;27;20444;-80
2022/11/05 08:42:51;;;;;;;4.27;2.33;;;18.90;57.90;;;;;;5122134;27;20506;-79
2022/11/05 08:45:19;;;;;;;2.33;2.23;;;19.20;58.10;;;;;;5135157;27;20454;-80
2022/11/05 08:47:47;;;;;;;2.37;2.17;;;19.50;58.10;;;;;;5122583;27;20456;-81
2022/11/05 08:50:17;;;;;;;2.20;1.90;;;19.80;58.40;;;;;;5123372;27;20463;-79
2022/11/05 08:52:45;;;;;;;2.40;2.20;;;20.00;58.40;;;;;;5118628;28;20448;-78
2022/11/05 08:55:13;;;;;;;2.23;2.03;;;20.30;58.60;;;;;;5116724;27;20443;-80
2022/11/05 08:57:41;;;;;;;3.30;2.13;;;20.60;58.90;;;;;;5116789;27;20450;-81
2022/11/05 09:00:10;;;;;;;2.00;1.90;;;20.80;59.00;;;;;;5124405;27;20447;-81
2022/11/05 09:02:38;;;;;;;4.00;2.10;;;21.00;59.20;;;;;;5116094;27;20452;-80
2022/11/05 09:05:07;;;;;;;2.80;2.27;;;21.30;59.50;;;;;;5114334;28;20505;-81
2022/11/05 09:07:36;;;;;;;2.27;2.07;;;21.50;59.60;;;;;;5120938;27;20455;-81
2022/11/05 09:10:05;;;;;;;3.10;1.87;;;21.80;59.80;;;;;;5130877;27;20456;-81
2022/11/05 09:12:33;;;;;;;1.80;1.70;;;22.00;59.90;;;;;;5129873;27;20455;-80
2022/11/05 09:15:01;;;;;;;3.73;2.40;;;22.30;60.10;;;;;;5108152;27;20444;-80
2022/11/05 09:17:29;;;;;;;2.17;2.07;;;22.50;60.00;;;;;;5117817;27;20456;-81
2022/11/05 09:19:57;;;;;;;2.33;2.07;;;22.70;60.20;;;;;;5125731;27;20436;-80
2022/11/05 09:22:25;;;;;;;2.37;2.17;;;22.90;60.40;;;;;;5125091;27;20446;-80
2022/11/05 09:24:55;;;;;;;2.47;2.27;;;23.10;60.50;;;;;;5125410;27;20468;-80
2022/11/05 09:27:23;;;;;;;2.23;2.13;;;23.30;60.70;;;;;;5125147;27;20434;-81
2022/11/05 09:29:51;;;;;;;2.43;2.27;;;23.50;60.70;;;;;;5128939;27;20463;-81
2022/11/05 09:32:19;;;;;;;2.03;1.93;;;23.70;60.70;;;;;;5129926;27;20452;-80
2022/11/05 09:34:48;;;;;;;2.20;2.10;;;23.90;60.80;;;;;;5110038;27;20442;-80
2022/11/05 09:37:16;;;;;;;3.53;3.20;;;24.10;60.60;;;;;;5118064;28;20423;-81
2022/11/05 09:39:44;;;;;;;5.17;3.63;;;24.30;60.80;;;;;;5119541;27;20466;-80
2022/11/05 09:42:15;;;;;;;5.73;4.67;;;24.50;60.60;;;;;;5106960;27;20423;-80
2022/11/05 09:44:46;;;;;;;5.90;5.30;;;24.70;60.40;;;;;;5112686;28;20435;-80
2022/11/05 09:47:15;;;;;;;6.20;5.53;;;24.90;60.20;;;;;;5110810;27;20449;-81
2022/11/05 09:49:46;;;;;;;7.90;5.97;;;25.10;59.90;;;;;;5110864;27;20418;-81
2022/11/05 09:52:17;;;;;;;6.17;5.60;;;25.30;59.60;;;;;;5116948;28;20429;-79
2022/11/05 09:54:47;;;;;;;6.97;6.20;;;25.50;59.50;;;;;;5110947;28;20446;-80
2022/11/05 09:57:19;;;;;;;9.40;6.40;;;25.70;59.20;;;;;;5118942;27;20452;-81
2022/11/05 09:59:49;;;;;;;7.40;6.63;;;25.80;58.80;;;;;;5118885;27;20454;-81
2022/11/05 10:02:18;;;;;;;6.90;6.20;;;25.90;58.40;;;;;;5118240;27;20421;-79
2022/11/05 10:04:47;;;;;;;7.50;6.40;;;26.10;58.30;;;;;;5113188;28;20527;-80
2022/11/05 10:07:17;;;;;;;7.03;6.30;;;26.30;58.00;;;;;;5109499;27;20511;-82
2022/11/05 10:09:46;;;;;;;7.63;6.93;;;26.50;57.60;;;;;;5107734;27;20430;-80
2022/11/05 10:12:17;;;;;;;7.67;6.97;;;26.70;57.40;;;;;;5110197;27;20449;-80
2022/11/05 10:14:48;;;;;;;8.00;7.20;;;26.90;57.00;;;;;;5120782;27;20442;-79
2022/11/05 10:17:20;;;;;;;9.07;6.97;;;27.10;56.60;;;;;;5126244;27;20452;-79
2022/11/05 10:19:49;;;;;;;8.50;7.13;;;27.30;56.30;;;;;;5117337;27;20432;-80
2022/11/05 10:22:18;;;;;;;7.73;7.00;;;27.50;55.80;;;;;;5117003;27;20419;-77
2022/11/05 10:24:47;;;;;;;7.60;6.80;;;27.60;55.40;;;;;;5120497;27;20467;-80
2022/11/05 10:27:19;;;;;;;7.33;6.50;;;27.80;55.20;;;;;;5108506;27;20455;-79
2022/11/05 10:29:47;;;;;;;6.63;6.03;;;28.00;54.80;;;;;;5116809;27;20459;-80
2022/11/05 10:32:33;;;;;;;7.07;5.90;;;28.20;54.30;;;;;;5117211;27;20484;-80
2022/11/05 10:35:02;;;;;;;6.57;5.97;;;28.30;54.60;;;;;;5108562;27;20505;-79
2022/11/05 10:37:30;;;;;;;7.97;5.77;;;28.50;53.70;;;;;;5117548;27;20464;-79
2022/11/05 10:39:58;;;;;;;6.53;5.87;;;28.70;53.30;;;;;;5113205;27;20452;-79
2022/11/05 10:42:40;;;;;;;6.60;6.00;;;28.90;53.00;;;;;;5107237;27;20429;-79
2022/11/05 10:45:14;;;;;;;6.07;5.47;;;29.10;52.60;;;;;;5109114;28;20435;-80
2022/11/05 10:47:49;;;;;;;6.37;5.77;;;29.30;52.20;;;;;;5108115;28;20420;-79
2022/11/05 10:50:18;;;;;;;5.87;5.37;;;29.50;51.80;;;;;;5111196;28;21154;-78
2022/11/05 10:52:54;;;;;;;5.40;5.00;;;29.70;51.20;;;;;;5110138;28;20452;-81
2022/11/05 10:55:24;;;;;;;5.67;5.17;;;29.90;50.90;;;;;;5117501;28;20443;-82
2022/11/05 10:57:53;;;;;;;4.93;4.53;;;30.10;50.60;;;;;;5121113;27;20444;-81
2022/11/05 11:00:27;;;;;;;5.10;4.43;;;30.30;50.10;;;;;;5131054;27;20451;-80
2022/11/05 11:02:57;;;;;;;4.97;4.47;;;30.60;49.70;;;;;;5120995;27;20459;-79
2022/11/05 11:05:28;;;;;;;4.27;3.97;;;30.70;49.20;;;;;;5114995;28;20451;-79
2022/11/05 11:08:01;;;;;;;7.40;4.50;;;30.90;48.60;;;;;;5117584;28;20456;-79
2022/11/05 11:10:31;;;;;;;5.03;4.53;;;30.70;48.50;;;;;;5111754;27;20871;-81
2022/11/05 11:13:00;;;;;;;5.33;4.13;;;30.90;48.60;;;;;;5129258;27;20472;-82
2022/11/05 11:15:31;;;;;;;4.40;4.10;;;31.10;48.40;;;;;;5120202;28;20432;-81
2022/11/05 11:18:00;;;;;;;3.73;3.50;;;31.40;48.20;;;;;;5120915;27;20447;-81
2022/11/05 11:20:28;;;;;;;4.50;4.10;;;31.80;47.30;;;;;;5118449;28;20443;-80
2022/11/05 11:22:59;;;;;;;4.60;4.30;;;32.10;46.70;;;;;;5119263;28;20467;-82
2022/11/05 11:25:28;;;;;;;3.47;3.27;;;32.20;46.00;;;;;;5118751;28;20456;-80
2022/11/05 11:28:02;;;;;;;4.00;3.70;;;32.40;45.50;;;;;;5118167;28;20465;-82
2022/11/05 11:30:30;;;;;;;3.77;3.50;;;32.50;45.20;;;;;;5116824;28;20444;-82
2022/11/05 11:33:03;;;;;;;3.57;3.37;;;32.70;44.80;;;;;;5112662;28;20466;-80
2022/11/05 11:35:31;;;;;;;3.80;3.50;;;32.80;44.00;;;;;;5117120;28;20930;-80
2022/11/05 11:38:00;;;;;;;3.37;3.07;;;33.00;44.10;;;;;;5115328;28;20451;-81
2022/11/05 11:40:30;;;;;;;3.40;3.20;;;33.20;43.70;;;;;;5106163;28;20421;-80
2022/11/05 11:43:04;;;;;;;3.87;3.43;;;33.40;43.60;;;;;;5111804;28;20460;-79
2022/11/05 11:45:35;;;;;;;3.40;3.07;;;33.60;43.30;;;;;;5110875;28;20436;-81
2022/11/05 11:48:05;;;;;;;3.23;3.03;;;33.70;42.70;;;;;;5119359;28;20470;-79
2022/11/05 11:50:35;;;;;;;3.20;3.00;;;33.90;42.60;;;;;;5115682;28;20835;-78
2022/11/05 11:53:30;;;;;;;3.50;3.20;;;34.10;42.20;;;;;;5115392;28;20475;-79
2022/11/05 11:56:04;;;;;;;3.33;3.00;;;34.30;41.80;;;;;;5102764;28;20436;-79
2022/11/05 11:58:41;;;;;;;3.03;2.70;;;34.40;41.70;;;;;;5122340;28;20436;-80
2022/11/05 12:01:41;;;;;;;3.17;2.73;;;34.60;41.20;;;;;;5109931;28;20451;-80
2022/11/05 12:04:28;;;;;;;3.50;3.20;;;34.30;40.50;;;;;;5118363;28;20468;-80
2022/11/05 12:07:04;;;;;;;2.93;2.73;;;34.40;41.20;;;;;;5121404;28;20462;-79
2022/11/05 12:09:37;;;;;;;3.20;3.10;;;34.50;40.90;;;;;;5122264;28;20811;-80
2022/11/05 12:12:07;;;;;;;2.77;2.67;;;34.70;40.70;;;;;;5122753;28;20524;-80
2022/11/05 12:14:40;;;;;;;2.60;2.50;;;34.80;40.40;;;;;;5122212;28;20900;-80
2022/11/05 12:17:23;;;;;;;2.60;2.50;;;35.00;40.10;;;;;;5120091;28;20466;-80
2022/11/05 12:20:12;;;;;;;2.80;2.60;;;35.10;39.80;;;;;;5112559;28;20446;-80
2022/11/05 12:23:00;;;;;;;3.70;2.80;;;35.20;39.50;;;;;;5102664;28;20439;-80
2022/11/05 12:25:29;;;;;;;3.10;2.90;;;35.40;39.30;;;;;;5116728;28;20497;-82
2022/11/05 12:28:10;;;;;;;2.47;2.37;;;35.50;39.10;;;;;;5122723;27;20447;-81
2022/11/05 12:30:46;;;;;;;2.37;2.27;;;35.70;38.90;;;;;;5114248;28;20452;-81
2022/11/05 12:33:23;;;;;;;2.67;2.57;;;35.80;38.50;;;;;;5123706;28;20467;-80
2022/11/05 12:36:02;;;;;;;2.70;2.57;;;35.80;38.10;;;;;;5121906;27;20447;-81
2022/11/05 12:38:45;;;;;;;4.20;2.50;;;35.90;37.90;;;;;;5119478;28;20853;-81
2022/11/05 12:41:17;;;;;;;2.37;2.27;;;36.00;37.60;;;;;;5119947;27;20492;-78
2022/11/05 12:43:53;;;;;;;2.20;2.10;;;36.10;37.40;;;;;;5125866;27;20463;-80
2022/11/05 12:46:29;;;;;;;4.93;2.90;;;36.00;37.50;;;;;;5122844;27;20443;-80
2022/11/05 12:49:06;;;;;;;2.40;2.30;;;35.90;37.00;;;;;;5121373;27;20451;-81
2022/11/05 12:51:41;;;;;;;2.40;2.23;;;35.50;37.20;;;;;;5102406;28;20475;-80
2022/11/05 12:54:15;;;;;;;2.80;2.40;;;35.00;37.20;;;;;;5120187;28;20462;-80
2022/11/05 12:56:45;;;;;;;2.03;1.93;;;34.60;37.80;;;;;;5118949;27;20443;-81
2022/11/05 12:59:17;;;;;;;2.30;2.10;;;34.20;38.00;;;;;;5119605;27;20451;-81
2022/11/05 13:01:48;;;;;;;2.87;2.40;;;33.90;38.30;;;;;;5113437;28;20440;-82
2022/11/05 13:04:20;;;;;;;4.87;3.13;;;33.50;38.60;;;;;;5118147;28;20459;-79
2022/11/05 13:06:51;;;;;;;4.70;2.90;;;33.20;38.80;;;;;;5120982;28;20431;-79
2022/11/05 13:09:19;;;;;;;5.30;2.97;;;32.80;39.10;;;;;;5116787;28;20451;-79
2022/11/05 13:11:51;;;;;;;6.97;3.10;;;32.50;40.10;;;;;;5118512;28;20476;-79
2022/11/05 13:14:21;;;;;;;4.63;3.40;;;32.20;39.70;;;;;;5119160;28;20464;-80
2022/11/05 13:16:52;;;;;;;4.77;3.70;;;31.90;40.00;;;;;;5118403;28;20447;-80
2022/11/05 13:19:22;;;;;;;5.40;4.40;;;31.70;40.40;;;;;;5119243;28;20440;-81
2022/11/05 13:21:52;;;;;;;4.87;3.10;;;31.40;40.50;;;;;;5119156;28;20874;-80
2022/11/05 13:24:22;;;;;;;5.23;3.53;;;31.10;40.80;;;;;;5118812;28;20459;-80
2022/11/05 13:26:52;;;;;;;11.00;3.70;;;30.80;41.00;;;;;;5118517;28;20456;-79
2022/11/05 13:29:24;;;;;;;4.43;3.47;;;30.60;41.20;;;;;;5100905;28;20444;-80
2022/11/05 13:31:56;;;;;;;5.60;3.60;;;30.50;41.50;;;;;;5097510;28;20470;-80
2022/11/05 13:34:24;;;;;;;5.07;3.53;;;30.20;41.60;;;;;;5098189;28;20881;-79
2022/11/05 13:39:45;;;;;;;8.90;4.70;;;29.80;42.00;;;;;;5098606;28;20466;-80
2022/11/05 13:42:48;;;;;;;10.13;4.37;;;29.70;42.30;;;;;;5098576;28;20490;-78
2022/11/05 13:45:38;;;;;;;5.30;4.13;;;29.50;42.50;;;;;;5115841;28;20406;-80